sensor_id;sensor_type;location;lat;lon;timestamp;P1;durP1;ratioP1;P2;durP2;ratioP2
39218;SDS011;24934;52.752;6.964;2024-01-15T00:00:23;24.27;;;12.30;;
39218;SDS011;24934;52.752;6.964;2024-01-15T00:02:49;29.30;;;12.63;;
39218;SDS011;24934;52.752;6.964;2024-01-15T00:05:15;37.00;;;12.33;;
39218;SDS011;24934;52.752;6.964;2024-01-15T00:07:41;34.73;;;12.33;;
39218;SDS011;24934;52.752;6.964;2024-01-15T00:10:07;31.77;;;12.10;;
39218;SDS011;24934;52.752;6.964;2024-01-15T00:12:33;38.50;;;12.20;;
39218;SDS011;24934;52.752;6.964;2024-01-15T00:14:59;30.43;;;12.03;;
39218;SDS011;24934;52.752;6.964;2024-01-15T00:17:25;35.50;;;11.50;;
39218;SDS011;24934;52.752;6.964;2024-01-15T00:19:51;28.60;;;12.83;;
39218;SDS011;24934;52.752;6.964;2024-01-15T00:22:17;32.20;;;11.43;;
39218;SDS011;24934;52.752;6.964;2024-01-15T00:24:43;25.13;;;11.37;;
39218;SDS011;24934;52.752;6.964;2024-01-15T00:27:09;31.30;;;11.40;;
39218;SDS011;24934;52.752;6.964;2024-01-15T00:29:35;33.50;;;11.20;;
39218;SDS011;24934;52.752;6.964;2024-01-15T00:32:01;23.73;;;11.10;;
39218;SDS011;24934;52.752;6.964;2024-01-15T00:34:27;34.10;;;11.33;;
39218;SDS011;24934;52.752;6.964;2024-01-15T00:36:53;29.97;;;10.97;;
39218;SDS011;24934;52.752;6.964;2024-01-15T00:39:19;27.20;;;11.00;;
39218;SDS011;24934;52.752;6.964;2024-01-15T00:41:45;29.20;;;10.87;;
39218;SDS011;24934;52.752;6.964;2024-01-15T00:44:11;33.87;;;11.40;;
39218;SDS011;24934;52.752;6.964;2024-01-15T00:46:42;25.33;;;10.90;;
39218;SDS011;24934;52.752;6.964;2024-01-15T00:49:08;26.97;;;11.53;;
39218;SDS011;24934;52.752;6.964;2024-01-15T00:51:34;22.20;;;11.30;;
39218;SDS011;24934;52.752;6.964;2024-01-15T00:54:00;38.07;;;11.50;;
39218;SDS011;24934;52.752;6.964;2024-01-15T00:56:27;27.40;;;11.77;;
39218;SDS011;24934;52.752;6.964;2024-01-15T00:58:53;33.40;;;11.17;;
39218;SDS011;24934;52.752;6.964;2024-01-15T01:01:19;24.93;;;10.63;;
39218;SDS011;24934;52.752;6.964;2024-01-15T01:03:45;25.80;;;11.77;;
39218;SDS011;24934;52.752;6.964;2024-01-15T01:06:11;32.70;;;10.67;;
39218;SDS011;24934;52.752;6.964;2024-01-15T01:08:37;28.53;;;10.93;;
39218;SDS011;24934;52.752;6.964;2024-01-15T01:11:03;33.40;;;11.90;;
39218;SDS011;24934;52.752;6.964;2024-01-15T01:13:29;25.37;;;10.67;;
39218;SDS011;24934;52.752;6.964;2024-01-15T01:15:55;22.83;;;10.60;;
39218;SDS011;24934;52.752;6.964;2024-01-15T01:18:21;26.60;;;10.27;;
39218;SDS011;24934;52.752;6.964;2024-01-15T01:20:46;29.17;;;10.40;;
39218;SDS011;24934;52.752;6.964;2024-01-15T01:23:12;22.83;;;10.90;;
39218;SDS011;24934;52.752;6.964;2024-01-15T01:25:38;30.67;;;10.40;;
39218;SDS011;24934;52.752;6.964;2024-01-15T01:28:04;29.50;;;10.97;;
39218;SDS011;24934;52.752;6.964;2024-01-15T01:30:30;28.33;;;11.03;;
39218;SDS011;24934;52.752;6.964;2024-01-15T01:32:56;34.67;;;11.63;;
39218;SDS011;24934;52.752;6.964;2024-01-15T01:35:22;31.77;;;11.80;;
39218;SDS011;24934;52.752;6.964;2024-01-15T01:37:48;26.07;;;12.77;;
39218;SDS011;24934;52.752;6.964;2024-01-15T01:40:14;28.77;;;12.97;;
39218;SDS011;24934;52.752;6.964;2024-01-15T01:42:40;23.97;;;13.23;;
39218;SDS011;24934;52.752;6.964;2024-01-15T01:45:06;36.13;;;13.80;;
39218;SDS011;24934;52.752;6.964;2024-01-15T01:47:33;25.83;;;13.83;;
39218;SDS011;24934;52.752;6.964;2024-01-15T01:50:00;26.03;;;13.87;;
39218;SDS011;24934;52.752;6.964;2024-01-15T01:52:27;29.17;;;13.97;;
39218;SDS011;24934;52.752;6.964;2024-01-15T01:54:53;36.17;;;14.43;;
39218;SDS011;24934;52.752;6.964;2024-01-15T01:57:19;33.67;;;14.90;;
39218;SDS011;24934;52.752;6.964;2024-01-15T01:59:45;30.93;;;15.20;;
39218;SDS011;24934;52.752;6.964;2024-01-15T02:02:12;28.93;;;14.50;;
39218;SDS011;24934;52.752;6.964;2024-01-15T02:04:39;37.67;;;14.23;;
39218;SDS011;24934;52.752;6.964;2024-01-15T02:07:05;27.63;;;14.23;;
39218;SDS011;24934;52.752;6.964;2024-01-15T02:09:31;31.17;;;14.50;;
39218;SDS011;24934;52.752;6.964;2024-01-15T02:11:57;27.00;;;14.30;;
39218;SDS011;24934;52.752;6.964;2024-01-15T02:14:23;24.57;;;13.97;;
39218;SDS011;24934;52.752;6.964;2024-01-15T02:16:49;26.43;;;13.80;;
39218;SDS011;24934;52.752;6.964;2024-01-15T02:19:18;24.43;;;13.40;;
39218;SDS011;24934;52.752;6.964;2024-01-15T02:21:44;15.03;;;13.50;;
39218;SDS011;24934;52.752;6.964;2024-01-15T02:24:10;17.30;;;13.27;;
39218;SDS011;24934;52.752;6.964;2024-01-15T02:26:37;17.87;;;13.23;;
39218;SDS011;24934;52.752;6.964;2024-01-15T02:29:03;16.77;;;12.87;;
39218;SDS011;24934;52.752;6.964;2024-01-15T02:31:30;20.73;;;12.70;;
39218;SDS011;24934;52.752;6.964;2024-01-15T02:33:56;17.97;;;12.50;;
39218;SDS011;24934;52.752;6.964;2024-01-15T02:36:23;19.33;;;12.80;;
39218;SDS011;24934;52.752;6.964;2024-01-15T02:38:49;16.67;;;12.67;;
39218;SDS011;24934;52.752;6.964;2024-01-15T02:41:15;16.60;;;12.53;;
39218;SDS011;24934;52.752;6.964;2024-01-15T02:43:41;15.20;;;12.40;;
39218;SDS011;24934;52.752;6.964;2024-01-15T02:46:07;16.43;;;12.23;;
39218;SDS011;24934;52.752;6.964;2024-01-15T02:48:33;25.10;;;12.97;;
39218;SDS011;24934;52.752;6.964;2024-01-15T02:51:02;24.27;;;13.00;;
39218;SDS011;24934;52.752;6.964;2024-01-15T02:53:28;20.63;;;12.03;;
39218;SDS011;24934;52.752;6.964;2024-01-15T02:55:54;30.60;;;13.10;;
39218;SDS011;24934;52.752;6.964;2024-01-15T02:58:20;20.47;;;12.70;;
39218;SDS011;24934;52.752;6.964;2024-01-15T03:00:47;28.13;;;12.33;;
39218;SDS011;24934;52.752;6.964;2024-01-15T03:03:12;21.83;;;11.97;;
39218;SDS011;24934;52.752;6.964;2024-01-15T03:05:38;30.17;;;12.07;;
39218;SDS011;24934;52.752;6.964;2024-01-15T03:08:04;24.30;;;11.93;;
39218;SDS011;24934;52.752;6.964;2024-01-15T03:10:30;19.93;;;12.40;;
39218;SDS011;24934;52.752;6.964;2024-01-15T03:12:57;15.70;;;11.70;;
39218;SDS011;24934;52.752;6.964;2024-01-15T03:15:23;24.00;;;11.77;;
39218;SDS011;24934;52.752;6.964;2024-01-15T03:17:49;19.13;;;11.13;;
39218;SDS011;24934;52.752;6.964;2024-01-15T03:20:15;21.43;;;12.37;;
39218;SDS011;24934;52.752;6.964;2024-01-15T03:22:41;17.23;;;11.80;;
39218;SDS011;24934;52.752;6.964;2024-01-15T03:25:07;18.03;;;12.40;;
39218;SDS011;24934;52.752;6.964;2024-01-15T03:27:33;15.23;;;11.13;;
39218;SDS011;24934;52.752;6.964;2024-01-15T03:29:59;22.27;;;11.70;;
39218;SDS011;24934;52.752;6.964;2024-01-15T03:32:25;14.10;;;11.27;;
39218;SDS011;24934;52.752;6.964;2024-01-15T03:34:51;13.97;;;11.57;;
39218;SDS011;24934;52.752;6.964;2024-01-15T03:37:17;16.83;;;11.37;;
39218;SDS011;24934;52.752;6.964;2024-01-15T03:39:43;22.53;;;11.33;;
39218;SDS011;24934;52.752;6.964;2024-01-15T03:42:09;17.07;;;11.47;;
39218;SDS011;24934;52.752;6.964;2024-01-15T03:44:35;18.37;;;11.53;;
39218;SDS011;24934;52.752;6.964;2024-01-15T03:47:01;16.80;;;12.10;;
39218;SDS011;24934;52.752;6.964;2024-01-15T03:49:27;20.17;;;12.30;;
39218;SDS011;24934;52.752;6.964;2024-01-15T03:51:53;17.27;;;12.00;;
39218;SDS011;24934;52.752;6.964;2024-01-15T03:54:19;18.87;;;12.60;;
39218;SDS011;24934;52.752;6.964;2024-01-15T03:56:45;22.57;;;12.17;;
39218;SDS011;24934;52.752;6.964;2024-01-15T03:59:11;25.53;;;12.93;;
39218;SDS011;24934;52.752;6.964;2024-01-15T04:01:37;17.87;;;12.70;;
39218;SDS011;24934;52.752;6.964;2024-01-15T04:04:03;27.60;;;13.00;;
39218;SDS011;24934;52.752;6.964;2024-01-15T04:06:29;21.80;;;12.63;;
39218;SDS011;24934;52.752;6.964;2024-01-15T04:08:55;20.43;;;12.83;;
39218;SDS011;24934;52.752;6.964;2024-01-15T04:11:21;20.37;;;13.00;;
39218;SDS011;24934;52.752;6.964;2024-01-15T04:13:47;24.80;;;13.03;;
39218;SDS011;24934;52.752;6.964;2024-01-15T04:16:13;22.70;;;13.47;;
39218;SDS011;24934;52.752;6.964;2024-01-15T04:18:39;23.07;;;13.97;;
39218;SDS011;24934;52.752;6.964;2024-01-15T04:21:05;20.97;;;13.77;;
39218;SDS011;24934;52.752;6.964;2024-01-15T04:23:32;23.17;;;14.40;;
39218;SDS011;24934;52.752;6.964;2024-01-15T04:25:58;17.03;;;14.07;;
39218;SDS011;24934;52.752;6.964;2024-01-15T04:28:24;25.23;;;14.13;;
39218;SDS011;24934;52.752;6.964;2024-01-15T04:30:50;20.60;;;13.73;;
39218;SDS011;24934;52.752;6.964;2024-01-15T04:33:16;26.00;;;14.60;;
39218;SDS011;24934;52.752;6.964;2024-01-15T04:35:42;20.23;;;14.60;;
39218;SDS011;24934;52.752;6.964;2024-01-15T04:38:08;18.13;;;14.60;;
39218;SDS011;24934;52.752;6.964;2024-01-15T04:40:34;23.53;;;14.73;;
39218;SDS011;24934;52.752;6.964;2024-01-15T04:43:00;21.30;;;13.90;;
39218;SDS011;24934;52.752;6.964;2024-01-15T04:45:26;26.50;;;14.90;;
39218;SDS011;24934;52.752;6.964;2024-01-15T04:47:55;23.70;;;14.73;;
39218;SDS011;24934;52.752;6.964;2024-01-15T04:50:22;30.40;;;14.67;;
39218;SDS011;24934;52.752;6.964;2024-01-15T04:52:48;29.33;;;15.20;;
39218;SDS011;24934;52.752;6.964;2024-01-15T04:55:14;21.10;;;14.10;;
39218;SDS011;24934;52.752;6.964;2024-01-15T04:57:40;31.57;;;14.53;;
39218;SDS011;24934;52.752;6.964;2024-01-15T05:00:06;26.47;;;14.40;;
39218;SDS011;24934;52.752;6.964;2024-01-15T05:02:32;32.70;;;14.30;;
39218;SDS011;24934;52.752;6.964;2024-01-15T05:04:58;29.10;;;14.53;;
39218;SDS011;24934;52.752;6.964;2024-01-15T05:07:24;24.67;;;14.30;;
39218;SDS011;24934;52.752;6.964;2024-01-15T05:09:50;27.93;;;14.00;;
39218;SDS011;24934;52.752;6.964;2024-01-15T05:12:16;26.20;;;14.10;;
39218;SDS011;24934;52.752;6.964;2024-01-15T05:14:42;25.27;;;14.27;;
39218;SDS011;24934;52.752;6.964;2024-01-15T05:17:08;28.77;;;14.17;;
39218;SDS011;24934;52.752;6.964;2024-01-15T05:19:34;25.07;;;13.97;;
39218;SDS011;24934;52.752;6.964;2024-01-15T05:22:00;28.27;;;14.70;;
39218;SDS011;24934;52.752;6.964;2024-01-15T05:24:26;31.10;;;14.13;;
39218;SDS011;24934;52.752;6.964;2024-01-15T05:26:52;33.33;;;14.13;;
39218;SDS011;24934;52.752;6.964;2024-01-15T05:29:18;25.83;;;14.20;;
39218;SDS011;24934;52.752;6.964;2024-01-15T05:31:44;25.77;;;13.77;;
39218;SDS011;24934;52.752;6.964;2024-01-15T05:34:10;31.37;;;14.63;;
39218;SDS011;24934;52.752;6.964;2024-01-15T05:36:36;22.27;;;14.00;;
39218;SDS011;24934;52.752;6.964;2024-01-15T05:39:02;31.73;;;14.53;;
39218;SDS011;24934;52.752;6.964;2024-01-15T05:41:28;26.63;;;13.33;;
39218;SDS011;24934;52.752;6.964;2024-01-15T05:43:54;25.40;;;13.93;;
39218;SDS011;24934;52.752;6.964;2024-01-15T05:46:20;25.53;;;14.07;;
39218;SDS011;24934;52.752;6.964;2024-01-15T05:48:46;25.40;;;13.90;;
39218;SDS011;24934;52.752;6.964;2024-01-15T05:51:12;25.27;;;13.60;;
39218;SDS011;24934;52.752;6.964;2024-01-15T05:53:38;30.03;;;13.50;;
39218;SDS011;24934;52.752;6.964;2024-01-15T05:56:06;30.20;;;14.20;;
39218;SDS011;24934;52.752;6.964;2024-01-15T05:58:32;28.07;;;14.30;;
39218;SDS011;24934;52.752;6.964;2024-01-15T06:00:58;27.17;;;14.60;;
39218;SDS011;24934;52.752;6.964;2024-01-15T06:03:24;31.40;;;14.87;;
39218;SDS011;24934;52.752;6.964;2024-01-15T06:05:50;28.57;;;14.40;;
39218;SDS011;24934;52.752;6.964;2024-01-15T06:08:16;28.43;;;15.27;;
39218;SDS011;24934;52.752;6.964;2024-01-15T06:10:42;31.90;;;14.33;;
39218;SDS011;24934;52.752;6.964;2024-01-15T06:13:08;21.80;;;14.10;;
39218;SDS011;24934;52.752;6.964;2024-01-15T06:15:34;20.63;;;13.53;;
39218;SDS011;24934;52.752;6.964;2024-01-15T06:18:00;30.27;;;14.33;;
39218;SDS011;24934;52.752;6.964;2024-01-15T06:20:26;24.70;;;13.47;;
39218;SDS011;24934;52.752;6.964;2024-01-15T06:22:52;24.03;;;14.60;;
39218;SDS011;24934;52.752;6.964;2024-01-15T06:25:18;21.57;;;14.73;;
39218;SDS011;24934;52.752;6.964;2024-01-15T06:27:44;24.77;;;15.20;;
39218;SDS011;24934;52.752;6.964;2024-01-15T06:30:10;29.30;;;15.23;;
39218;SDS011;24934;52.752;6.964;2024-01-15T06:32:36;27.33;;;15.23;;
39218;SDS011;24934;52.752;6.964;2024-01-15T06:35:03;26.10;;;15.77;;
39218;SDS011;24934;52.752;6.964;2024-01-15T06:37:29;22.60;;;15.20;;
39218;SDS011;24934;52.752;6.964;2024-01-15T06:39:55;25.83;;;15.27;;
39218;SDS011;24934;52.752;6.964;2024-01-15T06:42:22;28.93;;;15.33;;
39218;SDS011;24934;52.752;6.964;2024-01-15T06:44:47;33.37;;;14.67;;
39218;SDS011;24934;52.752;6.964;2024-01-15T06:47:13;28.07;;;15.37;;
39218;SDS011;24934;52.752;6.964;2024-01-15T06:49:39;26.33;;;14.87;;
39218;SDS011;24934;52.752;6.964;2024-01-15T06:52:05;28.00;;;14.97;;
39218;SDS011;24934;52.752;6.964;2024-01-15T06:54:32;21.43;;;14.90;;
39218;SDS011;24934;52.752;6.964;2024-01-15T06:56:58;22.93;;;14.57;;
39218;SDS011;24934;52.752;6.964;2024-01-15T06:59:24;26.00;;;15.10;;
39218;SDS011;24934;52.752;6.964;2024-01-15T07:01:50;24.87;;;14.87;;
39218;SDS011;24934;52.752;6.964;2024-01-15T07:04:16;29.27;;;15.17;;
39218;SDS011;24934;52.752;6.964;2024-01-15T07:06:41;24.63;;;14.10;;
39218;SDS011;24934;52.752;6.964;2024-01-15T07:09:08;30.87;;;14.03;;
39218;SDS011;24934;52.752;6.964;2024-01-15T07:11:34;27.00;;;14.10;;
39218;SDS011;24934;52.752;6.964;2024-01-15T07:14:00;19.57;;;14.03;;
39218;SDS011;24934;52.752;6.964;2024-01-15T07:16:26;18.23;;;13.90;;
39218;SDS011;24934;52.752;6.964;2024-01-15T07:18:52;24.60;;;14.00;;
39218;SDS011;24934;52.752;6.964;2024-01-15T07:21:18;21.37;;;14.13;;
39218;SDS011;24934;52.752;6.964;2024-01-15T07:23:44;23.93;;;13.70;;
39218;SDS011;24934;52.752;6.964;2024-01-15T07:26:10;24.03;;;14.00;;
39218;SDS011;24934;52.752;6.964;2024-01-15T07:28:36;26.10;;;14.17;;
39218;SDS011;24934;52.752;6.964;2024-01-15T07:31:02;19.73;;;13.57;;
39218;SDS011;24934;52.752;6.964;2024-01-15T07:33:29;24.57;;;14.40;;
39218;SDS011;24934;52.752;6.964;2024-01-15T07:35:54;22.40;;;13.73;;
39218;SDS011;24934;52.752;6.964;2024-01-15T07:38:20;21.80;;;13.40;;
39218;SDS011;24934;52.752;6.964;2024-01-15T07:40:47;25.00;;;14.27;;
39218;SDS011;24934;52.752;6.964;2024-01-15T07:43:14;22.93;;;14.63;;
39218;SDS011;24934;52.752;6.964;2024-01-15T07:45:40;23.13;;;15.20;;
39218;SDS011;24934;52.752;6.964;2024-01-15T07:48:06;30.63;;;15.67;;
39218;SDS011;24934;52.752;6.964;2024-01-15T07:50:32;23.23;;;15.03;;
39218;SDS011;24934;52.752;6.964;2024-01-15T07:52:58;23.70;;;14.80;;
39218;SDS011;24934;52.752;6.964;2024-01-15T07:55:24;23.97;;;14.40;;
39218;SDS011;24934;52.752;6.964;2024-01-15T07:57:50;22.07;;;14.93;;
39218;SDS011;24934;52.752;6.964;2024-01-15T08:00:17;19.70;;;14.80;;
39218;SDS011;24934;52.752;6.964;2024-01-15T08:02:43;24.23;;;15.60;;
39218;SDS011;24934;52.752;6.964;2024-01-15T08:05:09;24.97;;;15.67;;
39218;SDS011;24934;52.752;6.964;2024-01-15T08:07:35;23.17;;;15.17;;
39218;SDS011;24934;52.752;6.964;2024-01-15T08:10:01;26.23;;;15.10;;
39218;SDS011;24934;52.752;6.964;2024-01-15T08:12:28;28.97;;;14.93;;
39218;SDS011;24934;52.752;6.964;2024-01-15T08:14:54;26.83;;;14.57;;
39218;SDS011;24934;52.752;6.964;2024-01-15T08:17:20;23.47;;;14.73;;
39218;SDS011;24934;52.752;6.964;2024-01-15T08:19:46;29.43;;;15.47;;
39218;SDS011;24934;52.752;6.964;2024-01-15T08:22:12;25.37;;;15.77;;
39218;SDS011;24934;52.752;6.964;2024-01-15T08:24:38;24.93;;;15.93;;
39218;SDS011;24934;52.752;6.964;2024-01-15T08:27:04;34.77;;;15.67;;
39218;SDS011;24934;52.752;6.964;2024-01-15T08:29:30;25.47;;;15.93;;
39218;SDS011;24934;52.752;6.964;2024-01-15T08:31:58;24.17;;;15.93;;
39218;SDS011;24934;52.752;6.964;2024-01-15T08:34:24;25.23;;;15.33;;
39218;SDS011;24934;52.752;6.964;2024-01-15T08:36:50;29.03;;;15.20;;
39218;SDS011;24934;52.752;6.964;2024-01-15T08:39:16;24.93;;;16.23;;
39218;SDS011;24934;52.752;6.964;2024-01-15T08:41:44;27.07;;;15.53;;
39218;SDS011;24934;52.752;6.964;2024-01-15T08:44:11;28.57;;;15.63;;
39218;SDS011;24934;52.752;6.964;2024-01-15T08:46:37;26.67;;;15.10;;
39218;SDS011;24934;52.752;6.964;2024-01-15T08:49:07;35.03;;;16.43;;
39218;SDS011;24934;52.752;6.964;2024-01-15T08:51:33;30.10;;;16.40;;
39218;SDS011;24934;52.752;6.964;2024-01-15T08:53:59;31.13;;;16.17;;
39218;SDS011;24934;52.752;6.964;2024-01-15T08:56:25;27.97;;;16.77;;
39218;SDS011;24934;52.752;6.964;2024-01-15T08:58:52;35.77;;;17.63;;
39218;SDS011;24934;52.752;6.964;2024-01-15T09:01:18;27.10;;;17.53;;
39218;SDS011;24934;52.752;6.964;2024-01-15T09:03:44;38.53;;;19.37;;
39218;SDS011;24934;52.752;6.964;2024-01-15T09:06:11;37.23;;;18.57;;
39218;SDS011;24934;52.752;6.964;2024-01-15T09:08:37;32.07;;;19.37;;
39218;SDS011;24934;52.752;6.964;2024-01-15T09:11:03;36.67;;;18.93;;
39218;SDS011;24934;52.752;6.964;2024-01-15T09:13:29;33.10;;;19.23;;
39218;SDS011;24934;52.752;6.964;2024-01-15T09:15:55;30.33;;;18.50;;
39218;SDS011;24934;52.752;6.964;2024-01-15T09:18:21;31.73;;;18.60;;
39218;SDS011;24934;52.752;6.964;2024-01-15T09:20:47;33.67;;;18.37;;
39218;SDS011;24934;52.752;6.964;2024-01-15T09:23:13;28.87;;;17.70;;
39218;SDS011;24934;52.752;6.964;2024-01-15T09:25:39;33.23;;;17.30;;
39218;SDS011;24934;52.752;6.964;2024-01-15T09:28:05;37.13;;;18.10;;
39218;SDS011;24934;52.752;6.964;2024-01-15T09:30:33;29.83;;;17.07;;
39218;SDS011;24934;52.752;6.964;2024-01-15T09:32:58;27.77;;;16.17;;
39218;SDS011;24934;52.752;6.964;2024-01-15T09:35:24;27.90;;;15.90;;
39218;SDS011;24934;52.752;6.964;2024-01-15T09:37:50;26.27;;;15.87;;
39218;SDS011;24934;52.752;6.964;2024-01-15T09:40:16;28.23;;;16.10;;
39218;SDS011;24934;52.752;6.964;2024-01-15T09:42:43;31.33;;;17.10;;
39218;SDS011;24934;52.752;6.964;2024-01-15T09:45:10;35.73;;;17.87;;
39218;SDS011;24934;52.752;6.964;2024-01-15T09:47:36;25.53;;;17.13;;
39218;SDS011;24934;52.752;6.964;2024-01-15T09:50:03;31.43;;;18.17;;
39218;SDS011;24934;52.752;6.964;2024-01-15T09:52:30;28.80;;;18.03;;
39218;SDS011;24934;52.752;6.964;2024-01-15T09:54:56;32.07;;;17.47;;
39218;SDS011;24934;52.752;6.964;2024-01-15T09:57:23;36.03;;;17.30;;
39218;SDS011;24934;52.752;6.964;2024-01-15T09:59:50;31.60;;;16.03;;
39218;SDS011;24934;52.752;6.964;2024-01-15T10:02:18;21.57;;;16.23;;
39218;SDS011;24934;52.752;6.964;2024-01-15T10:04:44;36.20;;;16.77;;
39218;SDS011;24934;52.752;6.964;2024-01-15T10:07:11;27.40;;;16.30;;
39218;SDS011;24934;52.752;6.964;2024-01-15T10:09:40;26.60;;;16.37;;
39218;SDS011;24934;52.752;6.964;2024-01-15T10:12:06;26.70;;;16.80;;
39218;SDS011;24934;52.752;6.964;2024-01-15T10:14:33;29.00;;;16.07;;
39218;SDS011;24934;52.752;6.964;2024-01-15T10:16:59;24.93;;;16.30;;
39218;SDS011;24934;52.752;6.964;2024-01-15T10:19:25;21.60;;;15.53;;
39218;SDS011;24934;52.752;6.964;2024-01-15T10:21:52;21.83;;;15.60;;
39218;SDS011;24934;52.752;6.964;2024-01-15T10:24:18;31.20;;;16.63;;
39218;SDS011;24934;52.752;6.964;2024-01-15T10:26:44;24.23;;;16.27;;
39218;SDS011;24934;52.752;6.964;2024-01-15T10:29:10;28.07;;;16.07;;
39218;SDS011;24934;52.752;6.964;2024-01-15T10:31:36;22.63;;;15.70;;
39218;SDS011;24934;52.752;6.964;2024-01-15T10:34:10;28.77;;;16.63;;
39218;SDS011;24934;52.752;6.964;2024-01-15T10:36:38;23.73;;;15.97;;
39218;SDS011;24934;52.752;6.964;2024-01-15T10:39:04;25.23;;;15.07;;
39218;SDS011;24934;52.752;6.964;2024-01-15T10:41:32;21.70;;;16.07;;
39218;SDS011;24934;52.752;6.964;2024-01-15T10:43:58;22.17;;;15.40;;
39218;SDS011;24934;52.752;6.964;2024-01-15T10:46:25;23.13;;;15.37;;
39218;SDS011;24934;52.752;6.964;2024-01-15T10:48:51;20.27;;;15.27;;
39218;SDS011;24934;52.752;6.964;2024-01-15T10:51:17;17.00;;;14.50;;
39218;SDS011;24934;52.752;6.964;2024-01-15T10:53:44;23.03;;;15.07;;
39218;SDS011;24934;52.752;6.964;2024-01-15T10:56:11;15.33;;;13.73;;
39218;SDS011;24934;52.752;6.964;2024-01-15T10:58:38;15.90;;;14.23;;
39218;SDS011;24934;52.752;6.964;2024-01-15T11:01:05;21.70;;;14.63;;
39218;SDS011;24934;52.752;6.964;2024-01-15T11:03:31;20.60;;;14.80;;
39218;SDS011;24934;52.752;6.964;2024-01-15T11:05:59;18.80;;;14.37;;
39218;SDS011;24934;52.752;6.964;2024-01-15T11:08:25;19.57;;;14.20;;
39218;SDS011;24934;52.752;6.964;2024-01-15T11:10:52;18.07;;;14.20;;
39218;SDS011;24934;52.752;6.964;2024-01-15T11:13:20;16.53;;;14.30;;
39218;SDS011;24934;52.752;6.964;2024-01-15T11:18:26;15.57;;;13.93;;
39218;SDS011;24934;52.752;6.964;2024-01-15T11:23:47;18.93;;;14.20;;
39218;SDS011;24934;52.752;6.964;2024-01-15T11:31:56;17.50;;;14.00;;
39218;SDS011;24934;52.752;6.964;2024-01-15T11:37:08;16.67;;;13.77;;
39218;SDS011;24934;52.752;6.964;2024-01-15T11:39:41;16.00;;;14.40;;
39218;SDS011;24934;52.752;6.964;2024-01-15T11:42:07;16.57;;;15.07;;
39218;SDS011;24934;52.752;6.964;2024-01-15T11:44:33;16.73;;;15.00;;
39218;SDS011;24934;52.752;6.964;2024-01-15T11:51:58;22.33;;;16.20;;
39218;SDS011;24934;52.752;6.964;2024-01-15T11:54:25;18.67;;;16.77;;
39218;SDS011;24934;52.752;6.964;2024-01-15T11:56:54;18.00;;;16.10;;
39218;SDS011;24934;52.752;6.964;2024-01-15T11:59:21;17.73;;;15.90;;
39218;SDS011;24934;52.752;6.964;2024-01-15T12:01:47;17.43;;;15.63;;
39218;SDS011;24934;52.752;6.964;2024-01-15T12:04:13;17.73;;;15.27;;
39218;SDS011;24934;52.752;6.964;2024-01-15T12:06:42;15.97;;;14.43;;
39218;SDS011;24934;52.752;6.964;2024-01-15T12:09:08;15.90;;;14.43;;
39218;SDS011;24934;52.752;6.964;2024-01-15T12:11:35;15.27;;;13.77;;
39218;SDS011;24934;52.752;6.964;2024-01-15T12:14:02;15.40;;;13.77;;
39218;SDS011;24934;52.752;6.964;2024-01-15T12:16:28;14.70;;;13.40;;
39218;SDS011;24934;52.752;6.964;2024-01-15T12:18:54;15.97;;;14.40;;
39218;SDS011;24934;52.752;6.964;2024-01-15T12:21:20;16.00;;;14.57;;
39218;SDS011;24934;52.752;6.964;2024-01-15T12:23:46;15.70;;;14.10;;
39218;SDS011;24934;52.752;6.964;2024-01-15T12:26:13;15.43;;;14.13;;
39218;SDS011;24934;52.752;6.964;2024-01-15T12:28:39;14.90;;;13.70;;
39218;SDS011;24934;52.752;6.964;2024-01-15T12:31:05;15.97;;;14.50;;
39218;SDS011;24934;52.752;6.964;2024-01-15T12:33:32;15.63;;;14.37;;
39218;SDS011;24934;52.752;6.964;2024-01-15T12:35:58;16.00;;;14.50;;
39218;SDS011;24934;52.752;6.964;2024-01-15T12:38:24;16.90;;;15.50;;
39218;SDS011;24934;52.752;6.964;2024-01-15T12:40:50;17.30;;;15.60;;
39218;SDS011;24934;52.752;6.964;2024-01-15T12:43:17;16.37;;;14.80;;
39218;SDS011;24934;52.752;6.964;2024-01-15T12:45:43;17.60;;;14.50;;
39218;SDS011;24934;52.752;6.964;2024-01-15T12:48:08;15.60;;;14.10;;
39218;SDS011;24934;52.752;6.964;2024-01-15T12:50:35;15.33;;;13.87;;
39218;SDS011;24934;52.752;6.964;2024-01-15T12:53:01;15.10;;;13.90;;
39218;SDS011;24934;52.752;6.964;2024-01-15T12:55:27;15.43;;;14.13;;
39218;SDS011;24934;52.752;6.964;2024-01-15T12:57:53;15.60;;;14.17;;
39218;SDS011;24934;52.752;6.964;2024-01-15T13:00:20;15.30;;;13.90;;
39218;SDS011;24934;52.752;6.964;2024-01-15T13:02:46;14.93;;;13.67;;
39218;SDS011;24934;52.752;6.964;2024-01-15T13:05:12;15.23;;;13.97;;
39218;SDS011;24934;52.752;6.964;2024-01-15T13:07:38;15.30;;;14.00;;
39218;SDS011;24934;52.752;6.964;2024-01-15T13:10:07;16.20;;;14.10;;
39218;SDS011;24934;52.752;6.964;2024-01-15T13:12:34;16.70;;;14.10;;
39218;SDS011;24934;52.752;6.964;2024-01-15T13:15:00;17.17;;;14.43;;
39218;SDS011;24934;52.752;6.964;2024-01-15T13:17:28;15.50;;;13.93;;
39218;SDS011;24934;52.752;6.964;2024-01-15T13:19:54;19.23;;;14.17;;
39218;SDS011;24934;52.752;6.964;2024-01-15T13:22:20;15.60;;;14.00;;
39218;SDS011;24934;52.752;6.964;2024-01-15T13:24:46;15.13;;;13.53;;
39218;SDS011;24934;52.752;6.964;2024-01-15T13:27:12;18.43;;;13.60;;
39218;SDS011;24934;52.752;6.964;2024-01-15T13:29:38;17.77;;;13.43;;
39218;SDS011;24934;52.752;6.964;2024-01-15T13:32:04;20.00;;;13.47;;
39218;SDS011;24934;52.752;6.964;2024-01-15T13:34:30;18.97;;;13.60;;
39218;SDS011;24934;52.752;6.964;2024-01-15T13:36:56;15.60;;;13.43;;
39218;SDS011;24934;52.752;6.964;2024-01-15T13:39:22;24.83;;;13.93;;
39218;SDS011;24934;52.752;6.964;2024-01-15T13:41:48;16.63;;;13.10;;
39218;SDS011;24934;52.752;6.964;2024-01-15T13:44:14;18.33;;;12.83;;
39218;SDS011;24934;52.752;6.964;2024-01-15T13:46:40;14.93;;;13.00;;
39218;SDS011;24934;52.752;6.964;2024-01-15T13:49:06;20.60;;;14.00;;
39218;SDS011;24934;52.752;6.964;2024-01-15T13:51:34;18.83;;;14.40;;
39218;SDS011;24934;52.752;6.964;2024-01-15T13:54:00;23.50;;;13.90;;
39218;SDS011;24934;52.752;6.964;2024-01-15T13:56:29;19.53;;;13.67;;
39218;SDS011;24934;52.752;6.964;2024-01-15T13:58:57;23.80;;;13.63;;
39218;SDS011;24934;52.752;6.964;2024-01-15T14:01:24;15.70;;;12.77;;
39218;SDS011;24934;52.752;6.964;2024-01-15T14:03:50;15.00;;;13.40;;
39218;SDS011;24934;52.752;6.964;2024-01-15T14:06:15;15.53;;;13.23;;
39218;SDS011;24934;52.752;6.964;2024-01-15T14:08:44;18.27;;;13.50;;
39218;SDS011;24934;52.752;6.964;2024-01-15T14:11:10;15.87;;;14.23;;
39218;SDS011;24934;52.752;6.964;2024-01-15T14:13:36;19.50;;;13.83;;
39218;SDS011;24934;52.752;6.964;2024-01-15T14:16:02;17.73;;;12.90;;
39218;SDS011;24934;52.752;6.964;2024-01-15T14:18:28;13.93;;;12.57;;
39218;SDS011;24934;52.752;6.964;2024-01-15T14:20:54;14.90;;;13.40;;
39218;SDS011;24934;52.752;6.964;2024-01-15T14:23:20;14.40;;;13.03;;
39218;SDS011;24934;52.752;6.964;2024-01-15T14:25:47;14.20;;;12.87;;
39218;SDS011;24934;52.752;6.964;2024-01-15T14:28:13;15.57;;;13.00;;
39218;SDS011;24934;52.752;6.964;2024-01-15T14:30:39;18.07;;;13.37;;
39218;SDS011;24934;52.752;6.964;2024-01-15T14:33:05;15.90;;;12.33;;